createdAt,value
2023-01-13T00:01:59.896Z,96.50
2023-01-13T00:04:26.833Z,95.71
2023-01-13T00:06:53.694Z,95.58
2023-01-13T00:09:20.651Z,95.93
2023-01-13T00:11:47.779Z,96.87
2023-01-13T00:14:14.633Z,95.95
2023-01-13T00:16:41.667Z,95.50
2023-01-13T00:19:08.435Z,95.91
2023-01-13T00:21:36.669Z,95.58
2023-01-13T00:24:03.522Z,95.90
2023-01-13T00:26:36.343Z,95.91
2023-01-13T00:29:03.765Z,95.94
2023-01-13T00:31:31.064Z,95.72
2023-01-13T00:34:00.072Z,95.53
2023-01-13T00:36:27.658Z,96.49
2023-01-13T00:38:55.017Z,95.82
2023-01-13T00:41:24.108Z,95.79
2023-01-13T00:43:51.106Z,95.98
2023-01-13T00:46:20.972Z,95.38
2023-01-13T00:48:48.253Z,95.78
2023-01-13T00:51:17.874Z,96.09
2023-01-13T00:53:50.154Z,96.06
2023-01-13T00:56:38.584Z,96.14
2023-01-13T00:59:07.381Z,95.94
2023-01-13T01:01:34.324Z,95.74
2023-01-13T01:04:01.175Z,96.06
2023-01-13T01:06:28.477Z,95.57
2023-01-13T01:08:56.665Z,95.04
2023-01-13T01:11:26.418Z,95.61
2023-01-13T01:13:55.657Z,95.98
2023-01-13T01:16:23.938Z,95.82
2023-01-13T01:18:52.262Z,96.66
2023-01-13T01:21:19.992Z,96.43
2023-01-13T01:23:46.999Z,96.88
2023-01-13T01:26:16.691Z,96.68
2023-01-13T01:28:44.634Z,96.35
2023-01-13T01:31:15.790Z,95.76
2023-01-13T01:33:42.890Z,96.51
2023-01-13T01:36:12.080Z,95.83
2023-01-13T01:38:39.374Z,95.72
2023-01-13T01:41:07.157Z,96.84
2023-01-13T01:44:04.350Z,96.59
2023-01-13T01:46:39.678Z,96.59
2023-01-13T01:49:13.839Z,97.35
2023-01-13T01:52:09.006Z,96.94
2023-01-13T01:54:44.326Z,96.65
2023-01-13T01:57:17.428Z,96.15
2023-01-13T01:59:44.989Z,98.01
2023-01-13T02:02:12.384Z,97.14
2023-01-13T02:04:41.288Z,96.48
2023-01-13T02:07:08.606Z,97.34
2023-01-13T02:09:38.223Z,96.86
2023-01-13T02:12:23.953Z,97.12
2023-01-13T02:14:50.928Z,95.91
2023-01-13T02:17:48.718Z,96.34
2023-01-13T02:20:27.568Z,95.68
2023-01-13T02:22:57.365Z,95.96
2023-01-13T02:25:52.459Z,95.64
2023-01-13T02:29:23.913Z,96.26
2023-01-13T02:31:59.949Z,96.26
2023-01-13T02:34:51.925Z,97.25
2023-01-13T02:37:28.973Z,97.55
2023-01-13T02:40:03.073Z,97.17
2023-01-13T02:43:04.189Z,97.79
2023-01-13T02:45:46.678Z,97.48
2023-01-13T02:48:15.714Z,97.11
2023-01-13T02:50:50.275Z,95.76
2023-01-13T02:53:28.905Z,96.34
2023-01-13T02:56:01.038Z,95.95
2023-01-13T02:58:30.521Z,96.09
2023-01-13T03:00:57.940Z,96.47
2023-01-13T03:03:25.459Z,95.71
2023-01-13T03:06:00.953Z,96.60
2023-01-13T03:08:59.978Z,95.96
2023-01-13T03:11:32.785Z,95.66
2023-01-13T03:14:15.105Z,95.75
2023-01-13T03:16:57.066Z,96.53
2023-01-13T03:19:39.116Z,95.73
2023-01-13T03:22:27.321Z,95.86
2023-01-13T03:25:16.075Z,96.18
2023-01-13T03:28:04.789Z,96.82
2023-01-13T03:30:35.296Z,97.01
2023-01-13T03:33:34.580Z,96.73
2023-01-13T03:36:06.176Z,96.60
2023-01-13T03:38:37.409Z,95.92
2023-01-13T03:41:17.448Z,95.20
2023-01-13T03:44:25.696Z,94.81
2023-01-13T03:47:01.579Z,94.56
2023-01-13T03:49:51.826Z,95.09
2023-01-13T03:52:47.729Z,95.37
2023-01-13T03:55:21.457Z,94.92
2023-01-13T03:58:14.547Z,94.27
2023-01-13T04:00:50.618Z,94.59
2023-01-13T04:03:32.015Z,95.30
2023-01-13T04:06:09.242Z,95.31
2023-01-13T04:08:39.826Z,95.56
2023-01-13T04:11:16.009Z,95.43
2023-01-13T04:13:45.900Z,94.14
2023-01-13T04:16:13.753Z,94.67
2023-01-13T04:18:40.741Z,95.15
2023-01-13T04:21:08.236Z,94.99
2023-01-13T04:23:35.158Z,95.75
2023-01-13T04:26:02.142Z,95.80
2023-01-13T04:28:29.252Z,94.98
2023-01-13T04:30:56.313Z,95.07
2023-01-13T04:33:23.336Z,94.49
2023-01-13T04:35:50.219Z,93.87
2023-01-13T04:38:19.698Z,95.31
2023-01-13T04:40:47.006Z,95.38
2023-01-13T04:43:15.927Z,95.25
2023-01-13T04:45:43.802Z,94.77
2023-01-13T04:48:11.105Z,94.70
2023-01-13T04:50:37.912Z,94.40
2023-01-13T04:53:04.792Z,94.50
2023-01-13T04:55:32.381Z,95.25
2023-01-13T04:58:04.492Z,94.89
2023-01-13T05:00:32.155Z,94.44
2023-01-13T05:02:59.662Z,94.67
2023-01-13T05:05:28.144Z,94.01
2023-01-13T05:07:55.226Z,95.53
2023-01-13T05:10:23.993Z,95.62
2023-01-13T05:13:09.551Z,94.68
2023-01-13T05:15:56.849Z,95.05
2023-01-13T05:18:23.729Z,94.75
2023-01-13T05:20:50.654Z,94.45
2023-01-13T05:23:40.443Z,94.67
2023-01-13T05:26:07.412Z,94.63
2023-01-13T05:28:37.095Z,94.62
2023-01-13T05:31:04.064Z,95.38
2023-01-13T05:33:31.313Z,95.46
2023-01-13T05:36:02.959Z,95.46
2023-01-13T05:38:29.852Z,94.27
2023-01-13T05:41:18.393Z,93.06
2023-01-13T05:43:45.315Z,94.28
2023-01-13T05:46:13.096Z,94.22
2023-01-13T05:48:42.661Z,95.38
2023-01-13T05:51:12.198Z,94.34
2023-01-13T05:53:41.054Z,93.64
2023-01-13T05:56:09.105Z,94.29
2023-01-13T05:58:36.475Z,95.14
2023-01-13T06:01:06.376Z,95.66
2023-01-13T06:03:33.540Z,95.60
2023-01-13T06:06:02.399Z,94.66
2023-01-13T06:08:29.442Z,94.58
2023-01-13T06:10:58.841Z,94.47
2023-01-13T06:13:26.000Z,94.02
2023-01-13T06:15:57.777Z,94.20
2023-01-13T06:18:25.171Z,94.51
2023-01-13T06:20:52.019Z,95.48
2023-01-13T06:23:19.158Z,95.21
2023-01-13T06:26:16.406Z,94.89
2023-01-13T06:28:43.195Z,95.00
2023-01-13T06:31:11.217Z,92.33
2023-01-13T06:33:41.501Z,93.11
2023-01-13T06:36:14.849Z,92.89
2023-01-13T06:38:46.397Z,92.78
2023-01-13T06:41:13.605Z,92.45
2023-01-13T06:43:40.782Z,92.04
2023-01-13T06:46:07.795Z,91.76
2023-01-13T06:48:35.757Z,91.23
2023-01-13T06:51:04.244Z,91.36
2023-01-13T06:53:31.358Z,91.88
2023-01-13T06:55:58.183Z,89.89
2023-01-13T06:58:24.992Z,89.90
2023-01-13T07:00:51.998Z,88.72
2023-01-13T07:03:20.198Z,82.49
2023-01-13T07:05:55.142Z,80.97
2023-01-13T07:08:23.703Z,79.01
2023-01-13T07:10:51.620Z,78.26
2023-01-13T07:13:37.623Z,79.08
2023-01-13T07:16:06.864Z,76.72
2023-01-13T07:18:35.330Z,77.47
2023-01-13T07:21:08.102Z,75.27
2023-01-13T07:23:37.757Z,79.42
2023-01-13T07:26:05.270Z,78.22
2023-01-13T07:28:33.056Z,80.08
2023-01-13T07:31:00.605Z,79.32
2023-01-13T07:33:27.873Z,79.95
2023-01-13T07:36:00.148Z,81.46
2023-01-13T07:38:27.341Z,81.37
2023-01-13T07:40:54.636Z,82.58
2023-01-13T07:43:34.042Z,82.21
2023-01-13T07:46:06.322Z,81.56
2023-01-13T07:48:34.913Z,83.32
2023-01-13T07:51:07.918Z,84.20
2023-01-13T07:53:35.649Z,82.68
2023-01-13T07:56:04.044Z,81.42
2023-01-13T07:58:31.292Z,80.97
2023-01-13T08:00:58.370Z,82.01
2023-01-13T08:03:26.576Z,81.41
2023-01-13T08:05:53.605Z,82.74
2023-01-13T08:08:20.485Z,84.01
2023-01-13T08:10:47.504Z,84.25
2023-01-13T08:13:20.244Z,84.07
2023-01-13T08:15:52.933Z,85.06
2023-01-13T08:18:22.461Z,82.01
2023-01-13T08:20:50.109Z,83.24
2023-01-13T08:23:17.620Z,81.54
2023-01-13T08:25:45.309Z,81.56
2023-01-13T08:28:13.393Z,79.80
2023-01-13T08:30:40.488Z,81.64
2023-01-13T08:33:27.725Z,79.69
2023-01-13T08:35:54.739Z,81.80
2023-01-13T08:38:21.625Z,83.42
2023-01-13T08:40:48.659Z,83.31
2023-01-13T08:43:16.139Z,84.24
2023-01-13T08:45:43.060Z,84.73
2023-01-13T08:48:10.060Z,85.68
2023-01-13T08:50:36.890Z,86.16
2023-01-13T08:53:04.072Z,85.15
2023-01-13T08:55:31.143Z,86.33
2023-01-13T08:58:14.170Z,85.81
2023-01-13T09:00:42.502Z,86.89
2023-01-13T09:03:09.749Z,86.26
2023-01-13T09:05:36.865Z,86.06
2023-01-13T09:08:03.714Z,85.73
2023-01-13T09:10:30.667Z,85.29
2023-01-13T09:13:13.019Z,84.69
2023-01-13T09:15:42.370Z,80.80
2023-01-13T09:18:09.468Z,78.68
2023-01-13T09:20:37.053Z,77.30
2023-01-13T09:23:05.691Z,72.09
2023-01-13T09:25:36.664Z,69.94
2023-01-13T09:28:05.154Z,67.58
2023-01-13T09:30:32.540Z,68.70
2023-01-13T09:33:18.570Z,65.27
2023-01-13T09:35:45.522Z,63.40
2023-01-13T09:38:12.379Z,63.99
2023-01-13T09:40:41.740Z,63.93
2023-01-13T09:43:56.281Z,62.63
2023-01-13T09:46:47.711Z,61.04
2023-01-13T09:49:24.287Z,59.65
2023-01-13T09:51:58.522Z,60.14
2023-01-13T09:54:28.633Z,59.67
2023-01-13T09:56:55.413Z,60.00
2023-01-13T09:59:22.334Z,61.03
2023-01-13T10:01:59.515Z,61.19
2023-01-13T10:04:27.161Z,59.56
2023-01-13T10:07:01.477Z,60.41
2023-01-13T10:09:46.478Z,60.38
2023-01-13T10:12:41.545Z,59.09
2023-01-13T10:15:15.534Z,61.62
2023-01-13T10:17:50.881Z,59.83
2023-01-13T10:20:35.717Z,61.26
2023-01-13T10:23:39.919Z,59.96
2023-01-13T10:26:47.685Z,60.52
2023-01-13T10:29:26.580Z,60.76
2023-01-13T10:31:55.003Z,60.94
2023-01-13T10:34:23.913Z,60.54
2023-01-13T10:37:09.321Z,57.98
2023-01-13T10:39:44.887Z,57.87
2023-01-13T10:42:17.834Z,58.62
2023-01-13T10:45:03.849Z,58.50
2023-01-13T10:47:36.365Z,58.52
2023-01-13T10:50:09.811Z,58.38
2023-01-13T10:52:43.321Z,57.63
2023-01-13T10:55:33.791Z,57.16
2023-01-13T10:58:21.647Z,58.29
2023-01-13T11:00:49.802Z,57.96
2023-01-13T11:03:18.656Z,59.73
2023-01-13T11:06:00.492Z,59.26
2023-01-13T11:08:40.455Z,59.34
2023-01-13T11:11:24.782Z,59.54
2023-01-13T11:14:13.724Z,58.78
2023-01-13T11:16:52.912Z,60.49
2023-01-13T11:19:29.384Z,59.50
2023-01-13T11:22:06.027Z,57.60
2023-01-13T11:24:39.894Z,57.78
2023-01-13T11:27:34.739Z,57.56
2023-01-13T11:30:09.903Z,58.11
2023-01-13T11:32:56.701Z,58.43
2023-01-13T11:35:24.887Z,57.25
2023-01-13T11:37:56.389Z,57.89
2023-01-13T11:40:36.692Z,59.31
2023-01-13T11:43:21.763Z,57.65
2023-01-13T11:45:56.265Z,59.50
2023-01-13T11:48:27.211Z,56.87
2023-01-13T11:51:09.382Z,56.28
2023-01-13T11:54:04.247Z,54.15
2023-01-13T11:57:10.393Z,54.93
2023-01-13T11:59:56.705Z,54.78
2023-01-13T12:02:49.045Z,56.40
2023-01-13T12:05:23.982Z,55.46
2023-01-13T12:08:03.065Z,56.52
2023-01-13T12:11:00.235Z,54.61
2023-01-13T12:13:46.398Z,56.81
2023-01-13T12:16:21.118Z,56.91
2023-01-13T12:19:07.832Z,58.40
2023-01-13T12:21:41.579Z,60.22
2023-01-13T12:24:20.837Z,59.43
2023-01-13T12:26:59.685Z,60.19
2023-01-13T12:29:33.150Z,60.86
2023-01-13T12:32:03.545Z,59.56
2023-01-13T12:34:51.000Z,59.49
2023-01-13T12:37:44.980Z,58.98
2023-01-13T12:40:18.025Z,59.10
2023-01-13T12:43:22.405Z,58.25
2023-01-13T12:45:49.364Z,58.81
2023-01-13T12:48:55.403Z,57.71
2023-01-13T12:51:33.455Z,58.73
2023-01-13T12:54:21.278Z,59.36
2023-01-13T12:56:48.403Z,59.40
2023-01-13T12:59:20.737Z,59.17
2023-01-13T13:02:10.971Z,59.99
2023-01-13T13:04:51.846Z,60.50
2023-01-13T13:07:30.852Z,60.38
2023-01-13T13:10:05.516Z,60.49
2023-01-13T13:13:00.276Z,62.45
2023-01-13T13:15:37.133Z,63.47
2023-01-13T13:18:24.493Z,62.21
2023-01-13T13:21:04.749Z,63.68
2023-01-13T13:23:38.045Z,64.77
2023-01-13T13:26:24.845Z,64.38
2023-01-13T13:29:06.611Z,64.21
2023-01-13T13:32:04.391Z,65.94
2023-01-13T13:34:52.746Z,65.52
2023-01-13T13:38:00.205Z,66.08
2023-01-13T13:40:50.417Z,67.02
2023-01-13T13:43:36.882Z,67.41
2023-01-13T13:46:49.446Z,66.42
2023-01-13T13:49:40.571Z,68.04
2023-01-13T13:52:15.102Z,70.43
2023-01-13T13:54:47.578Z,69.70
2023-01-13T13:57:18.187Z,69.71
2023-01-13T13:59:45.082Z,68.67
2023-01-13T14:02:23.965Z,69.33
2023-01-13T14:04:50.874Z,69.82
2023-01-13T14:07:21.259Z,68.09
2023-01-13T14:09:53.052Z,67.91
2023-01-13T14:12:27.620Z,67.33
2023-01-13T14:14:57.655Z,68.90
2023-01-13T14:17:28.560Z,68.73
2023-01-13T14:20:05.754Z,67.88
2023-01-13T14:22:33.011Z,67.99
2023-01-13T14:25:02.126Z,69.41
2023-01-13T14:27:30.803Z,69.85
2023-01-13T14:30:00.656Z,69.78
2023-01-13T14:32:35.165Z,70.15
2023-01-13T14:35:03.453Z,69.48
2023-01-13T14:37:41.987Z,69.63
2023-01-13T14:40:33.348Z,69.83
2023-01-13T14:43:01.608Z,69.91
2023-01-13T14:45:29.411Z,71.10
2023-01-13T14:47:58.493Z,71.81
2023-01-13T14:50:31.698Z,72.52
2023-01-13T14:53:00.900Z,73.97
2023-01-13T14:55:31.730Z,74.33
2023-01-13T14:58:22.239Z,75.25
2023-01-13T15:00:50.547Z,75.08
2023-01-13T15:03:20.003Z,76.38
2023-01-13T15:05:53.688Z,76.31
2023-01-13T15:08:30.089Z,76.82
2023-01-13T15:11:02.940Z,78.07
2023-01-13T15:13:29.959Z,77.88
2023-01-13T15:16:00.324Z,78.10
2023-01-13T15:18:28.023Z,79.48
2023-01-13T15:20:55.064Z,79.55
2023-01-13T15:23:22.123Z,79.47
2023-01-13T15:25:57.972Z,79.79
2023-01-13T15:28:27.275Z,81.05
2023-01-13T15:30:56.197Z,81.59
2023-01-13T15:33:23.155Z,81.38
2023-01-13T15:35:53.674Z,81.41
2023-01-13T15:38:23.399Z,81.93
2023-01-13T15:40:52.115Z,82.64
2023-01-13T15:43:56.842Z,82.61
2023-01-13T15:46:39.327Z,82.87
2023-01-13T15:49:35.057Z,83.64
2023-01-13T15:52:14.221Z,83.79
2023-01-13T15:54:41.142Z,85.01
2023-01-13T15:57:32.783Z,85.65
2023-01-13T16:00:05.993Z,86.40
2023-01-13T16:02:32.811Z,87.10
2023-01-13T16:04:59.690Z,86.82
2023-01-13T16:07:26.740Z,87.65
2023-01-13T16:09:53.929Z,86.95
2023-01-13T16:12:21.105Z,87.37
2023-01-13T16:14:48.047Z,87.24
2023-01-13T16:17:17.810Z,87.83
2023-01-13T16:19:45.370Z,87.47
2023-01-13T16:22:14.374Z,86.95
2023-01-13T16:24:42.061Z,87.32
2023-01-13T16:27:18.820Z,87.30
2023-01-13T16:29:46.536Z,87.46
2023-01-13T16:32:13.813Z,87.96
2023-01-13T16:34:41.411Z,86.85
2023-01-13T16:37:24.610Z,87.20
2023-01-13T16:39:53.103Z,86.71
2023-01-13T16:42:20.876Z,87.20
2023-01-13T16:44:48.727Z,86.65
2023-01-13T16:47:16.939Z,85.83
2023-01-13T16:49:44.586Z,85.96
2023-01-13T16:52:11.640Z,85.80
2023-01-13T16:54:38.479Z,85.78
2023-01-13T16:57:07.455Z,85.42
2023-01-13T16:59:34.299Z,84.99
2023-01-13T17:02:02.440Z,85.95
2023-01-13T17:04:29.402Z,86.21
2023-01-13T17:06:58.554Z,86.59
2023-01-13T17:09:27.559Z,87.04
2023-01-13T17:11:55.341Z,87.14
2023-01-13T17:14:23.675Z,87.23
2023-01-13T17:16:53.029Z,88.25
2023-01-13T17:19:22.142Z,87.34
2023-01-13T17:21:51.127Z,88.42
2023-01-13T17:24:18.133Z,88.89
2023-01-13T17:26:49.430Z,87.78
2023-01-13T17:29:17.627Z,88.18
2023-01-13T17:31:45.035Z,87.89
2023-01-13T17:34:12.995Z,87.73
2023-01-13T17:36:40.178Z,88.94
2023-01-13T17:39:07.170Z,89.06
2023-01-13T17:41:34.168Z,89.31
2023-01-13T17:44:00.993Z,89.18
2023-01-13T17:46:27.912Z,89.26
2023-01-13T17:48:55.321Z,88.68
2023-01-13T17:51:25.697Z,88.18
2023-01-13T17:53:54.014Z,87.74
2023-01-13T17:56:20.832Z,88.32
2023-01-13T17:58:47.645Z,88.51
2023-01-13T18:01:18.141Z,88.97
2023-01-13T18:03:50.791Z,88.74
2023-01-13T18:06:20.809Z,88.29
2023-01-13T18:08:48.031Z,88.66
2023-01-13T18:11:19.808Z,88.79
2023-01-13T18:13:48.316Z,89.39
2023-01-13T18:16:17.407Z,90.27
2023-01-13T18:19:22.434Z,91.34
2023-01-13T18:22:07.843Z,91.29
2023-01-13T18:24:54.122Z,91.43
2023-01-13T18:27:28.643Z,91.38
2023-01-13T18:29:57.724Z,90.97
2023-01-13T18:32:30.939Z,90.69
2023-01-13T18:35:05.564Z,90.79
2023-01-13T18:37:36.069Z,90.34
2023-01-13T18:40:04.644Z,89.45
2023-01-13T18:42:50.227Z,90.58
2023-01-13T18:45:18.530Z,89.88
2023-01-13T18:47:45.818Z,89.82
2023-01-13T18:50:13.841Z,89.94
2023-01-13T18:52:41.516Z,89.21
2023-01-13T18:55:11.092Z,89.76
2023-01-13T18:57:40.689Z,89.50
2023-01-13T19:00:13.532Z,89.30
2023-01-13T19:02:40.848Z,89.03
2023-01-13T19:05:08.185Z,88.82
2023-01-13T19:07:36.256Z,89.13
2023-01-13T19:10:12.174Z,88.80
2023-01-13T19:12:39.136Z,89.01
2023-01-13T19:15:06.455Z,88.77
2023-01-13T19:17:35.155Z,89.33
2023-01-13T19:20:02.768Z,89.76
2023-01-13T19:22:32.950Z,90.43
2023-01-13T19:25:01.745Z,90.59
2023-01-13T19:27:29.394Z,90.90
2023-01-13T19:29:58.827Z,91.17
2023-01-13T19:32:26.170Z,92.48
2023-01-13T19:34:55.217Z,91.37
2023-01-13T19:37:22.187Z,91.54
2023-01-13T19:39:49.065Z,91.35
2023-01-13T19:42:34.844Z,91.01
2023-01-13T19:45:20.303Z,90.83
2023-01-13T19:47:47.244Z,91.32
2023-01-13T19:50:26.321Z,91.11
2023-01-13T19:53:04.081Z,90.69
2023-01-13T19:55:32.112Z,90.17
2023-01-13T19:57:59.298Z,89.24
2023-01-13T20:00:26.256Z,89.72
2023-01-13T20:02:53.440Z,89.44
2023-01-13T20:05:24.442Z,89.37
2023-01-13T20:07:52.320Z,88.99
2023-01-13T20:10:21.147Z,89.85
2023-01-13T20:12:48.196Z,88.87
2023-01-13T20:15:15.521Z,89.50
2023-01-13T20:17:42.371Z,89.33
2023-01-13T20:20:10.850Z,89.31
2023-01-13T20:22:41.061Z,87.84
2023-01-13T20:25:09.227Z,88.07
2023-01-13T20:27:37.445Z,88.56
2023-01-13T20:30:05.987Z,89.24
2023-01-13T20:32:32.904Z,89.19
2023-01-13T20:34:59.727Z,89.01
2023-01-13T20:37:26.820Z,89.08
2023-01-13T20:39:54.756Z,88.94
2023-01-13T20:42:31.714Z,89.02
2023-01-13T20:45:01.444Z,89.30
2023-01-13T20:47:29.642Z,89.15
2023-01-13T20:49:56.563Z,90.00
2023-01-13T20:52:23.717Z,88.89
2023-01-13T20:54:50.620Z,88.98
2023-01-13T20:57:17.713Z,89.67
2023-01-13T20:59:44.890Z,87.83
2023-01-13T21:02:14.475Z,91.03
2023-01-13T21:04:41.832Z,88.62
2023-01-13T21:07:09.126Z,89.45
2023-01-13T21:09:38.897Z,89.24
2023-01-13T21:12:25.097Z,90.11
2023-01-13T21:15:11.148Z,90.43
2023-01-13T21:17:56.735Z,90.62
2023-01-13T21:20:23.821Z,90.35
2023-01-13T21:22:50.657Z,90.08
2023-01-13T21:25:18.687Z,90.57
2023-01-13T21:28:10.416Z,89.62
2023-01-13T21:30:39.075Z,90.17
2023-01-13T21:33:06.520Z,89.80
2023-01-13T21:35:33.630Z,90.58
2023-01-13T21:38:00.721Z,89.38
2023-01-13T21:40:27.632Z,90.18
2023-01-13T21:43:13.263Z,91.22
2023-01-13T21:46:15.270Z,91.26
2023-01-13T21:48:42.123Z,91.51
2023-01-13T21:51:08.994Z,92.37
2023-01-13T21:53:35.795Z,93.37
2023-01-13T21:56:02.626Z,92.44
2023-01-13T21:58:29.488Z,93.74
2023-01-13T22:00:56.552Z,93.28
2023-01-13T22:03:23.693Z,94.03
2023-01-13T22:05:55.734Z,94.40
2023-01-13T22:08:22.650Z,95.53
2023-01-13T22:10:58.171Z,95.19
2023-01-13T22:13:45.618Z,94.46
2023-01-13T22:16:13.431Z,94.49
2023-01-13T22:18:40.323Z,94.59
2023-01-13T22:21:07.885Z,94.70
2023-01-13T22:23:34.847Z,94.87
2023-01-13T22:26:06.590Z,95.66
2023-01-13T22:28:51.735Z,95.67
2023-01-13T22:31:23.986Z,95.71
2023-01-13T22:33:56.737Z,96.73
2023-01-13T22:36:24.394Z,96.34
2023-01-13T22:38:56.454Z,96.93
2023-01-13T22:41:23.937Z,96.13
2023-01-13T22:43:50.827Z,96.87
2023-01-13T22:46:17.903Z,96.66
2023-01-13T22:48:46.205Z,98.14
2023-01-13T22:51:18.715Z,96.66
2023-01-13T22:54:03.885Z,97.58
2023-01-13T22:56:30.762Z,96.49
2023-01-13T22:58:59.919Z,98.12
2023-01-13T23:01:28.852Z,96.24
2023-01-13T23:03:56.526Z,96.34
2023-01-13T23:06:25.733Z,96.29
2023-01-13T23:08:53.240Z,96.13
2023-01-13T23:11:23.571Z,95.99
2023-01-13T23:13:53.176Z,96.17
2023-01-13T23:16:24.096Z,96.32
2023-01-13T23:18:50.994Z,95.63
2023-01-13T23:21:29.878Z,95.53
2023-01-13T23:23:58.740Z,95.60
2023-01-13T23:26:27.373Z,95.96
2023-01-13T23:28:58.888Z,96.22
2023-01-13T23:31:25.656Z,96.22
2023-01-13T23:33:52.508Z,96.14
2023-01-13T23:36:22.409Z,96.09
2023-01-13T23:38:49.651Z,96.60
2023-01-13T23:41:19.555Z,97.20
2023-01-13T23:44:00.652Z,97.67
2023-01-13T23:46:32.759Z,97.28
2023-01-13T23:49:01.025Z,97.21
2023-01-13T23:51:30.185Z,97.20
2023-01-13T23:53:58.605Z,97.42
2023-01-13T23:56:28.555Z,97.57
2023-01-13T23:58:55.982Z,97.27
